A- A+ FrançaisEnglishEspañol中国

Services sur Internet Soldes sur Internet Des idées de cadeaux Météo Météo aéro

La météo à : Autours de vous Dinard-Pleurtuit-St-Malo Tarbes-Lourdes-PyrénéesBordeaux-Leognan-SaucatsBordeaux-Yvrac

manche à air

La météo aéronautique pour les pilotes, la préparation du vol avec les METAR (METeorological Aerodrome Report, message d'observation des conditions météorologiques pour l'aviation) et Les TAF (Terminal Aerodrome Forecast : message de prévision à court terme des conditions météorologiques pour l'aviation). Et les autres ressources comme les VAC (Visual Approch Chart) et les NOTAM (Notice To Airman) pour préprer les vols.

Aéroport Ronneby (Suède) / OACI ESDF/ IATA RNB

L'altitude de l'aéroport Ronneby est de 58 m = 190 ft. Il est situé à proximité de (Suède). La météo générale à 5 jours est disponible pour Blekinge Län situé à 8.5 km.

METAR de l'aéroport Ronneby - ESDF

ESDF 291650Z 19004KT 8000 -RA SCT004 BKN009 12/12 Q0994 RERA

Décodage du METAR de l'aéroport Ronneby (SE)

METAR émis par ESDF le dimanche 29 septembre 2019 à 16:50 heure TU. Attention ce METAR est obsolète car il a été émis il y a 16 heure et 6 minutes.

La visibilité est de 8 km = 5 sm.

La température est de 12°C = 54 °F et le point rosée est de 12°C = 54 °F . Ce qui correspond à 100% d'humidité relative.

Le QNH est de 994 hPa = 29.35 inHg

Vent de 4 kt = 7 km/h, orienté à 190°.

Nuages : Nuages épars à 400 ft = 120 mètres. Couverture nuageuse fragmentée à 900 ft = 270 mètres.

-RA

RERA

TAF de l'aéroport Ronneby - ESDF

ESDF 291430Z 2915/2922 23008KT 9999 SCT020 TEMPO 2915/2922 RA BKN008 BKN030TCU

ESDF 291430Z 2915/2922 23008KT 9999 nuages épars à 020 temporairement 2915/2922 pluie couverture nuageuse fragmentée à 008 couverture nuageuse fragmentée à 030TCU

Aéroport à proximité de Ronneby

Météo générale à 5 jours à Blekinge Län (8.5 km)Aéroport Mockeln (76 km)Aéroport Kalmar (78 km)Aéroport Vaxjo Ronoberg (81 km)Aéroport Kristianstad Everod (83 km)Aéroport Borglanda (108 km)Aéroport Fagerhult (111 km)

Vue aérienne de l'aéroport Ronneby

NOTAM de l'aéroport Ronneby

Les NOTAM sont fournis sans aucune garantie de leur actualité. Le pilote est le seul responsable de la vérification de sa validité avant de l'utiliser opérationnellement pour préparer un vol ou l'utiliser lors de sa navigation.

Pas de NOTAM

Sources des données